Time;durP1;ratioP1;P1;durP2;ratioP2;P2;SDS_P1;SDS_P2;PMS_P1;PMS_P2;Temp;Humidity;BMP_temperature;BMP_pressure;BME280_temperature;BME280_humidity;BME280_pressure;Samples;Min_cycle;Max_cycle;Signal;HPM_P1;HPM_P2
2023/06/14 00:01:50;;;;;;;6.47;2.13;;;18.10;68.00;;;;;;5073560;28;20064;-80
2023/06/14 00:04:20;;;;;;;5.20;2.20;;;18.10;68.20;;;;;;5052464;28;20047;-79
2023/06/14 00:06:46;;;;;;;6.10;2.03;;;18.10;68.40;;;;;;5059944;28;20736;-80
2023/06/14 00:09:17;;;;;;;7.70;2.47;;;18.10;69.30;;;;;;5043243;28;20036;-80
2023/06/14 00:11:43;;;;;;;4.22;2.25;;;18.10;68.60;;;;;;5061596;28;20684;-79
2023/06/14 00:14:09;;;;;;;5.50;2.30;;;18.00;68.80;;;;;;5062835;28;20090;-79
2023/06/14 00:16:35;;;;;;;5.47;2.22;;;17.90;69.20;;;;;;5068417;28;20044;-79
2023/06/14 00:19:05;;;;;;;2.90;2.03;;;18.00;69.40;;;;;;5062819;28;20072;-81
2023/06/14 00:21:31;;;;;;;4.78;2.47;;;18.00;69.40;;;;;;5078696;28;20094;-80
2023/06/14 00:23:57;;;;;;;5.05;2.10;;;18.00;69.50;;;;;;5061630;28;20071;-80
2023/06/14 00:26:23;;;;;;;7.50;2.38;;;17.90;69.90;;;;;;5064885;28;20068;-80
2023/06/14 00:28:49;;;;;;;4.85;2.40;;;17.80;70.00;;;;;;5072296;28;20495;-80
2023/06/14 00:31:15;;;;;;;5.63;2.20;;;17.80;70.00;;;;;;5056494;28;20055;-80
2023/06/14 00:33:40;;;;;;;3.92;2.28;;;17.80;70.20;;;;;;5068706;28;20074;-80
2023/06/14 00:36:06;;;;;;;4.97;2.60;;;17.70;70.20;;;;;;5034450;28;20127;-80
2023/06/14 00:38:32;;;;;;;6.45;3.15;;;17.60;70.80;;;;;;5048913;28;20041;-80
2023/06/14 00:40:58;;;;;;;5.85;2.60;;;17.60;70.80;;;;;;5046723;28;20048;-80
2023/06/14 00:43:23;;;;;;;5.90;2.47;;;17.60;70.70;;;;;;5050691;28;20447;-79
2023/06/14 00:45:51;;;;;;;3.70;2.50;;;17.60;70.80;;;;;;5051023;28;20111;-79
2023/06/14 00:48:16;;;;;;;4.60;2.30;;;17.50;71.10;;;;;;5036528;28;20047;-79
2023/06/14 00:50:45;;;;;;;3.28;2.15;;;17.40;71.30;;;;;;5033337;28;20456;-79
2023/06/14 00:53:12;;;;;;;3.35;2.10;;;17.40;72.00;;;;;;5090142;28;20051;-78
2023/06/14 00:55:38;;;;;;;5.95;2.85;;;17.30;72.20;;;;;;5038604;28;20048;-79
2023/06/14 00:58:04;;;;;;;4.57;2.28;;;17.20;72.40;;;;;;5045016;28;20109;-79
2023/06/14 01:00:30;;;;;;;8.30;2.15;;;17.20;72.50;;;;;;5074090;28;20047;-79
2023/06/14 01:02:56;;;;;;;4.97;2.83;;;17.10;72.90;;;;;;5076869;28;20043;-79
2023/06/14 01:05:23;;;;;;;5.68;2.45;;;17.00;73.90;;;;;;5080731;28;20039;-79
2023/06/14 01:07:51;;;;;;;4.97;2.10;;;16.90;73.60;;;;;;5069374;28;20044;-78
2023/06/14 01:10:20;;;;;;;;;;;16.80;74.10;;;;;;5080716;28;20476;-80
2023/06/14 01:13:01;;;;;;;6.05;2.15;;;16.90;74.00;;;;;;5072181;28;20354;-79
2023/06/14 01:15:26;;;;;;;6.90;1.85;;;16.90;74.20;;;;;;5080040;28;20359;-79
2023/06/14 01:17:53;;;;;;;4.22;2.50;;;16.90;74.20;;;;;;5078231;28;20040;-79
2023/06/14 01:20:22;;;;;;;4.10;2.20;;;16.80;74.10;;;;;;5075603;28;20036;-80
2023/06/14 01:22:50;;;;;;;;;;;16.80;74.40;;;;;;5078197;28;20353;-79
2023/06/14 01:25:16;;;;;;;8.20;1.98;;;16.90;74.60;;;;;;5087574;28;19908;-79
2023/06/14 01:27:42;;;;;;;4.47;2.22;;;16.80;74.90;;;;;;5074154;28;20071;-79
2023/06/14 01:30:09;;;;;;;6.03;2.10;;;16.80;75.10;;;;;;5070085;28;20066;-79
2023/06/14 01:32:35;;;;;;;6.93;2.45;;;16.80;75.20;;;;;;5086062;28;20101;-79
2023/06/14 01:35:01;;;;;;;4.57;2.30;;;16.80;75.10;;;;;;5073527;28;20037;-79
2023/06/14 01:37:26;;;;;;;5.10;2.15;;;16.80;75.20;;;;;;5055051;28;20094;-79
2023/06/14 01:39:52;;;;;;;4.60;2.17;;;16.80;75.40;;;;;;5080437;28;20036;-79
2023/06/14 01:42:18;;;;;;;7.45;2.17;;;16.80;75.30;;;;;;5062894;28;20041;-79
2023/06/14 01:44:44;;;;;;;4.07;2.00;;;16.70;75.30;;;;;;5040609;28;20136;-79
2023/06/14 01:47:10;;;;;;;3.78;1.95;;;16.70;75.50;;;;;;5037050;28;20144;-79
2023/06/14 01:49:36;;;;;;;7.05;2.22;;;16.60;75.60;;;;;;5042346;28;20389;-79
2023/06/14 01:52:02;;;;;;;4.00;2.50;;;16.60;76.00;;;;;;5075201;28;20127;-79
2023/06/14 01:54:29;;;;;;;5.20;2.47;;;16.60;76.30;;;;;;5073928;28;20427;-79
2023/06/14 01:56:55;;;;;;;5.03;2.75;;;16.50;76.60;;;;;;5068523;28;20056;-79
2023/06/14 01:59:20;;;;;;;5.28;2.90;;;16.50;77.00;;;;;;5078371;28;20049;-79
2023/06/14 02:01:46;;;;;;;6.57;2.50;;;16.40;77.60;;;;;;5051413;28;20372;-79
2023/06/14 02:04:12;;;;;;;7.30;2.30;;;16.40;78.00;;;;;;5070075;28;20044;-79
2023/06/14 02:06:38;;;;;;;6.05;2.22;;;16.30;78.30;;;;;;5066905;28;20054;-79
2023/06/14 02:09:03;;;;;;;5.07;2.03;;;16.30;78.50;;;;;;5088227;28;20041;-79
2023/06/14 02:11:29;;;;;;;5.57;2.30;;;16.20;78.60;;;;;;5054510;28;20067;-79
2023/06/14 02:13:55;;;;;;;4.78;2.15;;;16.10;78.90;;;;;;5067644;28;20483;-78
2023/06/14 02:16:22;;;;;;;6.18;2.50;;;16.10;79.20;;;;;;5023768;28;20052;-79
2023/06/14 02:18:48;;;;;;;6.68;2.30;;;16.10;79.30;;;;;;5074645;28;20044;-78
2023/06/14 02:21:14;;;;;;;3.60;2.28;;;16.00;79.60;;;;;;5067172;28;20066;-79
2023/06/14 02:23:40;;;;;;;3.80;2.45;;;16.00;80.20;;;;;;5078471;28;20032;-79
2023/06/14 02:26:06;;;;;;;3.13;2.20;;;15.90;80.30;;;;;;5047736;28;20048;-79
2023/06/14 02:28:32;;;;;;;5.15;2.60;;;15.90;80.80;;;;;;5037428;28;20032;-80
2023/06/14 02:30:57;;;;;;;5.68;2.42;;;15.90;81.00;;;;;;5054070;28;20054;-79
2023/06/14 02:33:24;;;;;;;5.07;2.67;;;15.90;81.00;;;;;;5072601;28;20043;-79
2023/06/14 02:35:50;;;;;;;5.18;2.47;;;15.80;81.40;;;;;;5051119;28;20127;-79
2023/06/14 02:38:16;;;;;;;4.55;2.50;;;15.80;81.80;;;;;;5039709;28;20119;-79
2023/06/14 02:40:42;;;;;;;6.30;2.50;;;15.80;82.40;;;;;;5079243;28;20044;-79
2023/06/14 02:43:08;;;;;;;6.13;2.50;;;15.70;82.50;;;;;;5068138;28;20048;-78
2023/06/14 02:45:34;;;;;;;5.53;2.25;;;15.60;82.80;;;;;;5041326;28;20477;-78
2023/06/14 02:48:00;;;;;;;7.13;2.92;;;15.60;83.00;;;;;;5054056;28;20078;-78
2023/06/14 02:50:28;;;;;;;5.97;2.20;;;15.60;83.10;;;;;;5038005;28;20041;-79
2023/06/14 02:52:55;;;;;;;6.18;2.58;;;15.50;82.70;;;;;;5084360;28;20043;-79
2023/06/14 02:55:21;;;;;;;3.80;2.00;;;15.40;82.80;;;;;;5078577;28;20063;-79
2023/06/14 02:57:48;;;;;;;5.85;2.40;;;15.40;82.80;;;;;;5071102;28;20559;-79
2023/06/14 03:00:14;;;;;;;3.60;2.13;;;15.40;83.40;;;;;;5058380;28;20041;-79
2023/06/14 03:02:39;;;;;;;5.22;1.75;;;15.40;83.70;;;;;;5021722;28;20806;-79
2023/06/14 03:05:07;;;;;;;4.22;2.17;;;15.40;83.80;;;;;;5077458;28;20036;-78
2023/06/14 03:07:34;;;;;;;6.28;1.88;;;15.30;83.80;;;;;;5059700;28;20037;-79
2023/06/14 03:10:00;;;;;;;3.58;2.08;;;15.30;84.30;;;;;;5016869;28;20037;-79
2023/06/14 03:12:26;;;;;;;8.02;2.03;;;15.40;84.60;;;;;;5069080;28;20040;-79
2023/06/14 03:14:53;;;;;;;4.82;1.98;;;15.30;84.40;;;;;;5061285;28;20135;-79
2023/06/14 03:17:19;;;;;;;7.47;2.25;;;15.30;84.50;;;;;;5074195;28;20127;-79
2023/06/14 03:19:45;;;;;;;4.20;2.08;;;15.30;84.40;;;;;;5057260;28;20044;-79
2023/06/14 03:22:11;;;;;;;3.55;1.92;;;15.30;84.70;;;;;;5056079;28;20036;-79
2023/06/14 03:24:37;;;;;;;6.30;1.90;;;15.30;84.90;;;;;;5048684;28;20036;-79
2023/06/14 03:27:03;;;;;;;7.88;2.10;;;15.30;84.90;;;;;;5028540;28;20052;-79
2023/06/14 03:29:30;;;;;;;4.82;2.30;;;15.30;85.20;;;;;;5057804;28;20123;-78
2023/06/14 03:32:02;;;;;;;3.83;2.00;;;15.30;85.40;;;;;;5039416;28;20044;-80
2023/06/14 03:34:28;;;;;;;6.32;2.10;;;15.30;85.60;;;;;;5046178;28;20045;-79
2023/06/14 03:36:54;;;;;;;5.30;2.03;;;15.20;85.60;;;;;;5081375;28;20053;-79
2023/06/14 03:39:20;;;;;;;5.88;2.30;;;15.20;85.90;;;;;;5026704;28;20055;-79
2023/06/14 03:41:46;;;;;;;4.18;1.98;;;15.20;86.10;;;;;;5051136;28;20048;-79
2023/06/14 03:44:17;;;;;;;5.28;2.10;;;15.20;86.20;;;;;;5072437;28;20037;-79
2023/06/14 03:46:43;;;;;;;2.92;1.70;;;15.20;86.50;;;;;;5073301;28;20093;-79
2023/06/14 03:49:08;;;;;;;4.40;2.00;;;15.20;86.40;;;;;;5055449;28;20684;-79
2023/06/14 03:51:35;;;;;;;3.67;2.00;;;15.20;86.60;;;;;;5041928;28;20051;-79
2023/06/14 03:54:01;;;;;;;3.70;2.55;;;15.20;86.90;;;;;;5050660;28;20051;-79
2023/06/14 03:56:27;;;;;;;3.90;1.90;;;15.20;87.20;;;;;;5080757;28;20060;-79
2023/06/14 03:58:52;;;;;;;6.82;2.05;;;15.20;87.50;;;;;;5069667;28;20036;-79
2023/06/14 04:01:25;;;;;;;4.93;2.30;;;15.20;87.10;;;;;;5054369;28;20037;-79
2023/06/14 04:03:50;;;;;;;3.92;2.17;;;15.20;87.10;;;;;;5079341;28;20064;-78
2023/06/14 04:06:19;;;;;;;4.50;2.00;;;15.10;87.50;;;;;;5074257;28;20070;-78
2023/06/14 04:08:45;;;;;;;4.15;1.92;;;15.10;87.60;;;;;;5069721;28;20051;-79
2023/06/14 04:11:11;;;;;;;6.63;2.72;;;15.10;87.90;;;;;;5067797;28;20052;-79
2023/06/14 04:13:39;;;;;;;4.03;2.22;;;15.20;88.00;;;;;;5071907;28;20074;-79
2023/06/14 04:16:05;;;;;;;3.65;2.10;;;15.20;88.50;;;;;;5061122;28;20048;-79
2023/06/14 04:18:31;;;;;;;6.28;2.63;;;15.20;88.70;;;;;;5051081;28;20041;-79
2023/06/14 04:20:57;;;;;;;5.45;2.50;;;15.20;88.70;;;;;;5070342;28;20101;-79
2023/06/14 04:23:23;;;;;;;4.72;2.10;;;15.20;88.90;;;;;;5035464;28;20041;-79
2023/06/14 04:25:49;;;;;;;3.97;2.00;;;15.20;88.70;;;;;;5030438;28;20519;-79
2023/06/14 04:28:19;;;;;;;3.95;2.10;;;15.20;88.90;;;;;;5065527;28;20044;-79
2023/06/14 04:30:47;;;;;;;5.30;1.92;;;15.20;89.20;;;;;;5083251;28;20044;-79
2023/06/14 04:33:13;;;;;;;6.40;2.10;;;15.30;89.30;;;;;;5086470;28;20098;-79
2023/06/14 04:35:40;;;;;;;3.45;2.38;;;15.30;89.30;;;;;;5053508;28;20063;-79
2023/06/14 04:38:11;;;;;;;3.63;2.10;;;15.40;89.90;;;;;;5086773;28;20044;-78
2023/06/14 04:40:42;;;;;;;5.20;2.03;;;15.40;89.50;;;;;;5059168;28;20128;-78
2023/06/14 04:43:11;;;;;;;6.40;2.47;;;15.40;89.80;;;;;;5078068;28;20044;-79
2023/06/14 04:45:39;;;;;;;5.55;2.42;;;15.40;89.90;;;;;;5039483;28;20461;-79
2023/06/14 04:48:06;;;;;;;4.05;2.13;;;15.50;90.00;;;;;;5055620;28;20049;-79
2023/06/14 04:50:32;;;;;;;4.97;2.35;;;15.50;90.00;;;;;;5035842;28;20041;-79
2023/06/14 04:52:59;;;;;;;5.07;2.30;;;15.50;90.10;;;;;;5039322;28;20110;-79
2023/06/14 04:55:26;;;;;;;6.28;2.10;;;15.50;90.10;;;;;;5066305;28;20067;-78
2023/06/14 04:57:53;;;;;;;4.60;2.22;;;15.50;90.20;;;;;;5064953;28;20045;-78
2023/06/14 05:00:20;;;;;;;5.65;2.90;;;15.50;90.30;;;;;;5052305;28;20144;-78
2023/06/14 05:02:46;;;;;;;4.53;2.13;;;15.50;90.30;;;;;;5042916;28;20095;-78
2023/06/14 05:05:13;;;;;;;5.10;2.10;;;15.60;90.50;;;;;;5059581;28;20044;-79
2023/06/14 05:07:38;;;;;;;4.75;2.13;;;15.60;90.50;;;;;;5021476;28;20065;-78
2023/06/14 05:10:05;;;;;;;6.50;2.17;;;15.70;90.60;;;;;;5041829;28;20040;-79
2023/06/14 05:12:31;;;;;;;5.45;2.30;;;15.70;90.70;;;;;;5037539;28;20195;-76
2023/06/14 05:14:58;;;;;;;6.32;2.05;;;15.80;90.70;;;;;;5049590;28;20144;-76
2023/06/14 05:17:24;;;;;;;4.60;2.20;;;15.80;90.70;;;;;;5086632;28;20144;-77
2023/06/14 05:19:57;;;;;;;7.45;2.20;;;15.80;90.60;;;;;;5046607;28;20063;-78
2023/06/14 05:22:22;;;;;;;3.72;2.00;;;15.80;90.60;;;;;;5012025;28;20128;-78
2023/06/14 05:24:48;;;;;;;5.30;2.20;;;15.90;90.60;;;;;;5042868;28;20129;-78
2023/06/14 05:27:14;;;;;;;5.80;2.20;;;15.90;90.80;;;;;;5059749;28;20130;-78
2023/06/14 05:29:40;;;;;;;10.20;2.65;;;15.90;90.70;;;;;;5092404;28;20050;-78
2023/06/14 05:32:06;;;;;;;6.22;2.50;;;16.00;90.80;;;;;;5031796;28;20599;-78
2023/06/14 05:34:32;;;;;;;4.70;2.08;;;16.10;90.80;;;;;;5072806;28;20037;-78
2023/06/14 05:36:58;;;;;;;3.20;2.35;;;16.10;91.00;;;;;;5066319;28;20071;-78
2023/06/14 05:39:24;;;;;;;6.38;2.40;;;16.10;91.00;;;;;;5045688;28;20051;-78
2023/06/14 05:41:50;;;;;;;5.05;2.30;;;16.20;91.00;;;;;;5039210;28;20037;-78
2023/06/14 05:44:16;;;;;;;3.88;2.50;;;16.20;91.00;;;;;;5085298;28;20446;-78
2023/06/14 05:46:44;;;;;;;7.28;3.15;;;16.20;91.10;;;;;;5065999;28;20048;-79
2023/06/14 05:49:11;;;;;;;4.20;2.20;;;16.30;91.60;;;;;;5047993;28;20372;-78
2023/06/14 05:51:37;;;;;;;4.60;2.75;;;16.30;91.40;;;;;;5026417;28;20057;-79
2023/06/14 05:54:03;;;;;;;6.40;3.03;;;16.40;91.40;;;;;;5039015;28;20876;-78
2023/06/14 05:56:29;;;;;;;6.07;3.10;;;16.40;91.20;;;;;;5016184;28;20440;-78
2023/06/14 05:58:55;;;;;;;9.20;2.80;;;16.40;91.50;;;;;;5079601;28;20074;-78
2023/06/14 06:01:22;;;;;;;4.07;2.60;;;16.40;91.30;;;;;;5062177;28;20040;-80
2023/06/14 06:03:47;;;;;;;5.32;2.70;;;16.50;91.50;;;;;;5044558;28;20078;-79
2023/06/14 06:06:13;;;;;;;7.30;2.70;;;16.60;91.40;;;;;;5083864;28;20075;-79
2023/06/14 06:08:40;;;;;;;4.22;3.08;;;16.60;91.30;;;;;;5061849;28;20075;-79
2023/06/14 06:11:06;;;;;;;5.82;2.45;;;16.60;91.30;;;;;;5082390;28;20041;-79
2023/06/14 06:13:32;;;;;;;4.80;2.50;;;16.70;91.20;;;;;;5081369;28;20071;-79
2023/06/14 06:15:58;;;;;;;4.78;2.40;;;16.80;91.40;;;;;;5074121;28;20044;-79
2023/06/14 06:18:25;;;;;;;4.55;2.90;;;16.80;91.20;;;;;;5041912;28;20635;-79
2023/06/14 06:20:51;;;;;;;6.38;2.65;;;16.90;91.20;;;;;;5067999;28;20052;-79
2023/06/14 06:23:17;;;;;;;4.43;2.50;;;16.90;91.10;;;;;;5059096;28;20515;-79
2023/06/14 06:25:43;;;;;;;7.70;3.25;;;16.90;91.60;;;;;;5059096;28;20119;-79
2023/06/14 06:28:09;;;;;;;4.78;2.78;;;17.00;91.30;;;;;;5054278;28;20131;-80
2023/06/14 06:30:36;;;;;;;8.18;2.60;;;17.10;91.30;;;;;;5075139;28;20036;-79
2023/06/14 06:33:03;;;;;;;6.45;2.53;;;17.20;91.20;;;;;;5026619;28;20036;-80
2023/06/14 06:35:30;;;;;;;10.07;2.63;;;17.20;91.30;;;;;;5051537;28;20467;-79
2023/06/14 06:37:56;;;;;;;5.40;2.60;;;17.30;91.20;;;;;;5063236;28;20052;-79
2023/06/14 06:40:22;;;;;;;6.05;2.78;;;17.30;91.20;;;;;;5051885;28;20520;-79
2023/06/14 06:42:50;;;;;;;7.95;3.10;;;17.30;91.10;;;;;;5044006;28;20043;-80
2023/06/14 06:45:16;;;;;;;8.27;2.70;;;17.40;91.00;;;;;;5032791;28;20102;-79
2023/06/14 06:47:42;;;;;;;4.68;2.60;;;17.40;90.90;;;;;;5051296;28;20109;-79
2023/06/14 06:50:08;;;;;;;5.45;2.80;;;17.50;90.60;;;;;;5079286;28;20460;-82
2023/06/14 06:52:35;;;;;;;7.70;2.40;;;17.50;90.60;;;;;;5066093;28;20052;-82
2023/06/14 06:55:02;;;;;;;6.25;3.28;;;17.60;90.50;;;;;;5073601;28;20040;-82
2023/06/14 06:57:29;;;;;;;5.15;2.50;;;17.70;90.50;;;;;;5068708;28;20050;-82
2023/06/14 06:59:56;;;;;;;7.60;2.60;;;17.70;90.30;;;;;;5085010;28;20040;-82
2023/06/14 07:02:22;;;;;;;5.75;2.80;;;17.80;90.20;;;;;;5062710;28;20036;-82
2023/06/14 07:04:49;;;;;;;5.78;2.45;;;17.80;90.10;;;;;;5072868;28;20119;-83
2023/06/14 07:07:15;;;;;;;3.92;2.28;;;17.90;90.10;;;;;;5066429;28;20049;-83
2023/06/14 07:09:44;;;;;;;4.40;2.35;;;18.00;89.00;;;;;;5056077;28;20048;-82
2023/06/14 07:12:11;;;;;;;7.28;2.28;;;18.10;88.60;;;;;;5073775;28;20433;-82
2023/06/14 07:14:37;;;;;;;4.97;2.10;;;18.00;88.30;;;;;;5059467;28;20037;-83
2023/06/14 07:17:03;;;;;;;4.60;2.25;;;18.10;88.30;;;;;;5079137;28;20040;-82
2023/06/14 07:19:32;;;;;;;5.03;2.08;;;18.20;87.90;;;;;;5073269;28;20036;-81
2023/06/14 07:21:58;;;;;;;5.47;2.38;;;18.30;87.20;;;;;;5050757;28;20105;-82
2023/06/14 07:24:24;;;;;;;4.90;1.83;;;18.30;87.50;;;;;;5072372;28;20044;-82
2023/06/14 07:26:50;;;;;;;2.92;2.05;;;18.40;87.40;;;;;;5058693;28;20134;-83
2023/06/14 07:29:16;;;;;;;4.13;2.10;;;18.50;86.80;;;;;;5074672;28;20130;-83
2023/06/14 07:31:42;;;;;;;3.58;1.90;;;18.50;86.00;;;;;;5078231;28;20048;-82
2023/06/14 07:34:08;;;;;;;4.80;1.88;;;18.60;85.60;;;;;;5070200;28;20054;-82
2023/06/14 07:36:34;;;;;;;4.63;2.08;;;18.60;85.80;;;;;;5062064;28;20048;-82
2023/06/14 07:39:00;;;;;;;2.03;1.73;;;18.70;86.20;;;;;;5087748;28;20036;-83
2023/06/14 07:41:26;;;;;;;5.18;2.13;;;18.70;85.50;;;;;;5074464;28;20097;-82
2023/06/14 07:43:52;;;;;;;3.95;2.03;;;18.80;85.40;;;;;;5060083;28;20040;-83
2023/06/14 07:46:18;;;;;;;6.97;2.10;;;18.80;84.80;;;;;;5071356;28;20111;-83
2023/06/14 07:48:44;;;;;;;4.82;2.20;;;18.90;84.80;;;;;;5066541;28;20459;-84
2023/06/14 07:51:09;;;;;;;4.88;1.88;;;18.90;85.30;;;;;;5078647;28;20067;-83
2023/06/14 07:53:35;;;;;;;6.55;2.88;;;19.00;84.70;;;;;;5078242;28;20059;-83
2023/06/14 07:56:02;;;;;;;4.93;2.13;;;19.00;84.20;;;;;;5066543;28;20051;-82
2023/06/14 07:58:32;;;;;;;2.95;2.15;;;19.00;84.60;;;;;;5057059;28;20068;-84
2023/06/14 08:00:58;;;;;;;3.33;1.95;;;19.10;84.30;;;;;;5065221;28;20135;-83
2023/06/14 08:03:24;;;;;;;6.35;2.28;;;19.20;83.50;;;;;;5089978;28;20480;-82
2023/06/14 08:05:50;;;;;;;3.13;1.80;;;19.20;82.80;;;;;;5059743;28;20457;-84
2023/06/14 08:08:16;;;;;;;3.13;1.90;;;19.20;83.00;;;;;;5032963;28;20071;-83
2023/06/14 08:10:42;;;;;;;3.28;1.80;;;19.30;82.70;;;;;;5059890;28;20059;-83
2023/06/14 08:13:09;;;;;;;2.88;1.80;;;19.30;82.10;;;;;;5083112;28;20044;-83
2023/06/14 08:15:35;;;;;;;3.55;1.90;;;19.40;82.30;;;;;;5048600;28;20041;-82
2023/06/14 08:18:01;;;;;;;5.45;1.90;;;19.40;82.50;;;;;;5060777;28;20104;-82
2023/06/14 08:20:26;;;;;;;3.10;1.70;;;19.50;82.50;;;;;;5079751;28;20035;-83
2023/06/14 08:22:56;;;;;;;4.03;2.03;;;19.50;82.10;;;;;;5081692;28;20097;-84
2023/06/14 08:25:22;;;;;;;2.70;1.77;;;19.60;81.80;;;;;;5048264;28;20400;-83
2023/06/14 08:27:49;;;;;;;2.88;1.52;;;19.60;81.30;;;;;;5057779;28;20116;-83
2023/06/14 08:30:15;;;;;;;3.70;1.70;;;19.60;81.20;;;;;;5046317;28;20059;-83
2023/06/14 08:32:41;;;;;;;3.17;1.70;;;19.70;81.20;;;;;;5062103;28;20043;-84
2023/06/14 08:35:07;;;;;;;3.28;1.55;;;19.70;80.00;;;;;;5058352;28;20051;-83
2023/06/14 08:37:33;;;;;;;2.20;1.35;;;19.70;80.20;;;;;;5055907;28;20469;-83
2023/06/14 08:39:59;;;;;;;3.67;1.73;;;19.80;80.50;;;;;;5078701;28;20393;-83
2023/06/14 08:42:25;;;;;;;2.95;1.90;;;19.90;80.30;;;;;;5042284;28;20040;-84
2023/06/14 08:44:50;;;;;;;2.45;1.40;;;19.90;79.80;;;;;;5043057;28;20037;-83
2023/06/14 08:47:18;;;;;;;3.20;1.40;;;19.90;80.20;;;;;;5038145;28;20060;-84
2023/06/14 08:49:47;;;;;;;2.95;2.15;;;20.00;79.60;;;;;;5070928;28;20042;-85
2023/06/14 08:52:12;;;;;;;2.65;1.70;;;20.10;79.90;;;;;;5072067;28;20761;-84
2023/06/14 08:54:43;;;;;;;3.38;1.83;;;20.10;79.50;;;;;;5069492;28;20072;-85
2023/06/14 08:57:12;;;;;;;3.22;1.80;;;20.20;78.50;;;;;;5087746;28;20487;-84
2023/06/14 08:59:43;;;;;;;3.40;1.77;;;20.20;78.00;;;;;;5057462;28;20142;-84
2023/06/14 09:02:12;;;;;;;4.07;1.88;;;20.30;77.70;;;;;;5061759;28;20044;-86
2023/06/14 09:04:39;;;;;;;3.92;2.08;;;20.30;78.60;;;;;;5076453;28;20055;-84
2023/06/14 09:07:06;;;;;;;3.28;2.00;;;20.40;78.70;;;;;;5093683;28;20464;-86
2023/06/14 09:09:32;;;;;;;5.50;1.98;;;20.50;77.30;;;;;;5076614;28;20131;-84
2023/06/14 09:11:58;;;;;;;3.40;1.95;;;20.50;76.60;;;;;;5069307;28;20104;-85
2023/06/14 09:14:24;;;;;;;6.15;1.98;;;20.60;75.90;;;;;;5066531;28;20668;-84
2023/06/14 09:16:54;;;;;;;3.72;1.80;;;20.70;76.50;;;;;;5090616;28;20532;-83
2023/06/14 09:19:23;;;;;;;4.32;2.00;;;20.80;76.20;;;;;;5071738;28;20040;-83
2023/06/14 09:21:49;;;;;;;3.33;1.80;;;20.80;75.50;;;;;;5064948;28;20047;-84
2023/06/14 09:24:15;;;;;;;3.58;2.00;;;21.00;76.20;;;;;;5082329;28;20054;-83
2023/06/14 09:26:42;;;;;;;3.58;1.75;;;21.10;75.60;;;;;;5076826;28;20048;-85
2023/06/14 09:29:10;;;;;;;3.65;1.92;;;21.10;76.00;;;;;;5086207;28;20127;-84
2023/06/14 09:31:36;;;;;;;4.72;1.83;;;21.10;75.70;;;;;;5092549;28;20123;-83
2023/06/14 09:34:02;;;;;;;5.32;2.08;;;21.20;75.00;;;;;;5075359;28;20135;-83
2023/06/14 09:36:28;;;;;;;3.00;2.05;;;21.20;75.60;;;;;;5068472;28;20044;-84
2023/06/14 09:38:55;;;;;;;3.50;1.90;;;21.30;74.50;;;;;;5068526;28;20040;-85
2023/06/14 09:41:51;;;;;;;3.75;1.95;;;21.40;74.40;;;;;;5083172;28;20153;-83
2023/06/14 09:44:20;;;;;;;3.13;1.80;;;21.50;75.10;;;;;;5041122;28;20043;-83
2023/06/14 09:46:46;;;;;;;2.92;1.60;;;21.60;73.60;;;;;;5055776;28;20048;-83
2023/06/14 09:49:11;;;;;;;6.13;2.00;;;21.60;73.30;;;;;;5070648;28;20052;-84
2023/06/14 09:51:43;;;;;;;3.20;1.70;;;21.60;74.40;;;;;;5073701;28;20106;-84
2023/06/14 09:54:09;;;;;;;3.78;1.73;;;21.70;74.10;;;;;;5080649;28;20039;-84
2023/06/14 09:56:37;;;;;;;5.18;1.80;;;21.90;74.00;;;;;;5047455;28;20059;-84
2023/06/14 09:59:07;;;;;;;4.20;1.80;;;22.00;73.20;;;;;;5073381;28;20366;-84
2023/06/14 10:01:33;;;;;;;3.30;1.80;;;22.10;73.40;;;;;;5057291;28;20037;-84
2023/06/14 10:04:05;;;;;;;2.85;1.95;;;22.20;72.40;;;;;;5046074;28;20044;-84
2023/06/14 10:06:31;;;;;;;3.30;1.90;;;22.20;71.50;;;;;;5037009;28;20091;-84
2023/06/14 10:09:01;;;;;;;4.05;2.03;;;22.30;71.80;;;;;;5071487;28;20052;-84
2023/06/14 10:11:27;;;;;;;5.18;2.33;;;22.30;71.40;;;;;;5072762;28;20071;-86
2023/06/14 10:13:54;;;;;;;4.72;2.03;;;22.20;70.10;;;;;;5062859;28;20040;-85
2023/06/14 10:16:27;;;;;;;3.47;2.08;;;22.30;71.40;;;;;;5059406;28;20373;-84
2023/06/14 10:19:18;;;;;;;7.07;2.10;;;22.60;71.20;;;;;;5088086;28;20796;-84
2023/06/14 10:22:00;;;;;;;4.18;2.30;;;22.60;70.80;;;;;;5057760;28;20485;-85
2023/06/14 10:24:42;;;;;;;4.05;2.03;;;22.60;70.30;;;;;;5075285;28;20056;-85
2023/06/14 10:27:11;;;;;;;5.93;2.10;;;22.50;70.40;;;;;;5050277;28;20107;-86
2023/06/14 10:29:58;;;;;;;5.00;2.50;;;22.50;70.40;;;;;;5047791;28;20093;-84
2023/06/14 10:32:30;;;;;;;4.38;2.50;;;22.70;69.60;;;;;;5075458;28;20513;-86
2023/06/14 10:34:59;;;;;;;4.53;2.20;;;22.80;69.90;;;;;;5056477;28;20044;-84
2023/06/14 10:37:25;;;;;;;3.75;2.30;;;23.00;70.80;;;;;;5082255;28;20059;-84
2023/06/14 10:39:53;;;;;;;6.50;2.58;;;23.10;69.40;;;;;;5057353;28;20365;-85
2023/06/14 10:42:19;;;;;;;7.72;2.08;;;23.10;69.40;;;;;;5024919;28;20381;-84
2023/06/14 10:45:01;;;;;;;4.90;2.10;;;23.10;69.50;;;;;;5047341;28;20037;-84
2023/06/14 10:47:37;;;;;;;7.18;2.35;;;23.10;69.70;;;;;;5069737;28;20044;-83
2023/06/14 10:50:14;;;;;;;5.80;2.70;;;23.30;70.40;;;;;;5051797;28;20044;-85
2023/06/14 10:52:41;;;;;;;4.78;1.92;;;23.40;69.40;;;;;;5038373;28;20101;-83
2023/06/14 10:55:14;;;;;;;7.47;2.60;;;23.20;69.30;;;;;;5077234;28;20055;-85
2023/06/14 10:57:52;;;;;;;5.30;2.15;;;23.00;69.20;;;;;;5064245;28;20063;-84
2023/06/14 11:00:26;;;;;;;3.95;2.30;;;23.00;69.10;;;;;;5034449;28;20049;-85
2023/06/14 11:03:30;;;;;;;3.90;2.42;;;23.00;69.70;;;;;;5062524;28;20571;-83
2023/06/14 11:05:57;;;;;;;8.70;2.67;;;22.90;69.50;;;;;;5059929;28;20052;-83
2023/06/14 11:08:39;;;;;;;4.75;2.42;;;22.90;70.30;;;;;;5045091;28;20114;-83
2023/06/14 11:11:09;;;;;;;4.85;2.38;;;22.80;70.10;;;;;;5064186;28;20036;-83
2023/06/14 11:13:41;;;;;;;6.38;2.40;;;23.00;71.10;;;;;;5042175;28;20198;-85
2023/06/14 11:16:16;;;;;;;6.75;2.38;;;23.30;70.20;;;;;;5043224;28;20044;-84
2023/06/14 11:18:42;;;;;;;6.07;2.78;;;23.40;69.50;;;;;;5024708;28;20516;-85
2023/06/14 11:21:11;;;;;;;3.47;2.30;;;23.50;69.30;;;;;;5063226;28;20065;-84
2023/06/14 11:23:37;;;;;;;10.57;2.67;;;23.40;69.50;;;;;;5060401;28;20044;-84
2023/06/14 11:26:04;;;;;;;6.72;2.75;;;23.40;69.40;;;;;;5058725;28;20042;-83
2023/06/14 11:28:40;;;;;;;4.60;2.47;;;23.40;69.10;;;;;;5046486;28;20114;-85
2023/06/14 11:31:06;;;;;;;5.10;2.50;;;23.40;69.80;;;;;;5019734;28;20038;-83
2023/06/14 11:33:32;;;;;;;6.20;2.78;;;23.40;69.70;;;;;;5035352;28;20480;-84
2023/06/14 11:35:57;;;;;;;4.20;2.22;;;23.30;70.00;;;;;;5058291;28;20347;-83
2023/06/14 11:38:24;;;;;;;11.02;2.90;;;23.40;70.50;;;;;;5050202;28;20049;-82
2023/06/14 11:40:50;;;;;;;7.95;2.50;;;23.40;68.90;;;;;;5054355;28;20343;-83
2023/06/14 11:43:17;;;;;;;6.45;2.60;;;23.40;69.00;;;;;;5085454;28;20123;-83
2023/06/14 11:45:42;;;;;;;7.38;2.70;;;23.40;69.70;;;;;;5036008;28;20047;-82
2023/06/14 11:48:08;;;;;;;5.95;2.72;;;23.40;69.70;;;;;;5033378;28;20131;-84
2023/06/14 11:50:37;;;;;;;4.15;2.33;;;23.30;69.10;;;;;;5057471;28;20049;-86
2023/06/14 11:53:07;;;;;;;6.03;2.47;;;23.40;69.10;;;;;;5060085;28;20045;-83
2023/06/14 11:55:40;;;;;;;7.53;2.42;;;23.60;69.50;;;;;;5039212;28;20131;-85
2023/06/14 11:58:06;;;;;;;8.13;2.63;;;23.70;69.00;;;;;;5078050;28;20126;-85
2023/06/14 12:00:31;;;;;;;9.48;2.70;;;23.70;69.00;;;;;;5048775;28;20048;-84
2023/06/14 12:02:57;;;;;;;7.80;2.80;;;23.60;68.70;;;;;;5039858;28;20522;-84
2023/06/14 12:05:23;;;;;;;6.38;2.40;;;23.60;68.20;;;;;;5052181;28;20195;-83
2023/06/14 12:07:53;;;;;;;6.28;3.00;;;23.50;68.70;;;;;;5068440;28;20050;-84
2023/06/14 12:10:19;;;;;;;7.28;2.60;;;23.50;68.00;;;;;;5041537;28;20041;-83
2023/06/14 12:12:45;;;;;;;4.35;2.50;;;23.50;68.20;;;;;;5049138;28;20465;-83
2023/06/14 12:15:11;;;;;;;5.63;2.30;;;23.40;68.00;;;;;;5096866;28;20082;-84
2023/06/14 12:17:41;;;;;;;6.32;2.80;;;23.40;69.00;;;;;;5069423;28;20102;-83
2023/06/14 12:20:13;;;;;;;6.40;3.10;;;23.50;68.50;;;;;;5039872;28;20055;-83
2023/06/14 12:22:56;;;;;;;5.97;2.47;;;23.50;68.90;;;;;;5076966;28;20147;-83
2023/06/14 12:25:35;;;;;;;8.10;2.47;;;23.50;68.10;;;;;;5079249;28;20102;-82
2023/06/14 12:28:08;;;;;;;7.55;2.70;;;23.60;68.30;;;;;;5061328;28;20045;-85
2023/06/14 12:30:34;;;;;;;5.95;2.67;;;23.60;67.90;;;;;;5042516;28;20044;-83
2023/06/14 12:33:03;;;;;;;6.15;2.55;;;23.60;68.00;;;;;;5085093;28;20044;-84
2023/06/14 12:35:29;;;;;;;8.68;2.95;;;23.60;68.60;;;;;;5072076;28;20776;-83
2023/06/14 12:37:56;;;;;;;6.63;3.00;;;23.60;68.20;;;;;;5077640;28;20048;-83
2023/06/14 12:40:22;;;;;;;4.07;2.53;;;23.60;67.70;;;;;;5057151;28;20123;-83
2023/06/14 12:42:48;;;;;;;7.75;2.55;;;23.60;67.50;;;;;;5068072;28;20072;-84
2023/06/14 12:45:14;;;;;;;7.30;2.70;;;23.80;68.00;;;;;;5067291;28;20045;-84
2023/06/14 12:47:39;;;;;;;10.73;2.92;;;23.90;67.00;;;;;;5067284;28;20047;-84
2023/06/14 12:50:06;;;;;;;7.05;2.55;;;23.90;66.70;;;;;;5057886;28;20049;-84